Time;durP1;ratioP1;P1;durP2;ratioP2;P2;SDS_P1;SDS_P2;PMS_P1;PMS_P2;Temp;Humidity;BMP_temperature;BMP_pressure;BME280_temperature;BME280_humidity;BME280_pressure;Samples;Min_cycle;Max_cycle;Signal;HPM_P1;HPM_P2
2022/05/25 00:01:42;;;;;;;0.80;0.80;;;;;;;13.47;100.00;99986.88;5019584;28;20201;-77
2022/05/25 00:04:08;;;;;;;1.43;1.00;;;;;;;13.46;100.00;99986.91;5022912;28;20191;-77
2022/05/25 00:06:34;;;;;;;0.90;0.73;;;;;;;13.45;100.00;99986.09;5032466;28;20186;-77
2022/05/25 00:08:59;;;;;;;1.63;0.80;;;;;;;13.41;100.00;99984.44;5027308;28;20250;-76
2022/05/25 00:11:25;;;;;;;1.03;0.70;;;;;;;13.38;100.00;99995.75;5029974;28;20644;-76
2022/05/25 00:13:51;;;;;;;0.70;0.70;;;;;;;13.37;100.00;99998.38;5028333;28;20637;-76
2022/05/25 00:16:17;;;;;;;0.60;0.60;;;;;;;13.36;100.00;100004.47;5023679;28;20602;-77
2022/05/25 00:19:59;;;;;;;0.97;0.70;;;;;;;13.35;100.00;99998.41;5024585;28;20213;-76
2022/05/25 00:21:30;;;;;;;1.47;0.87;;;;;;;13.34;100.00;100006.22;5031460;28;20189;-76
2022/05/25 00:23:55;;;;;;;1.60;0.80;;;;;;;13.33;100.00;100008.00;5030233;28;20217;-76
2022/05/25 00:26:21;;;;;;;1.03;0.90;;;;;;;13.33;100.00;100005.41;5033140;28;20245;-77
2022/05/25 00:28:46;;;;;;;1.00;0.90;;;;;;;13.34;100.00;99995.84;5032505;28;20227;-76
2022/05/25 00:31:12;;;;;;;2.23;0.90;;;;;;;13.34;100.00;99998.44;5039291;28;20224;-75
2022/05/25 00:33:38;;;;;;;0.80;0.80;;;;;;;13.35;100.00;100005.34;5032989;28;20270;-76
2022/05/25 00:36:04;;;;;;;0.70;0.70;;;;;;;13.37;100.00;100008.75;5032066;28;20219;-77
2022/05/25 00:38:29;;;;;;;0.70;0.70;;;;;;;13.38;100.00;100013.06;5040054;28;20216;-76
2022/05/25 00:40:57;;;;;;;0.80;0.80;;;;;;;13.37;100.00;100014.84;5022316;28;20312;-76
2022/05/25 00:43:22;;;;;;;1.10;0.57;;;;;;;13.36;100.00;100017.44;5030679;28;20189;-77
2022/05/25 00:45:55;;;;;;;2.63;0.73;;;;;;;13.35;100.00;100014.00;5028224;28;20304;-75
2022/05/25 00:49:12;;;;;;;0.90;0.70;;;;;;;13.35;100.00;100018.34;5026328;28;20222;-76
2022/05/25 00:52:01;;;;;;;1.57;0.90;;;;;;;13.36;100.00;100030.44;5001752;28;20201;-76
2022/05/25 00:54:39;;;;;;;0.73;0.73;;;;;;;13.36;100.00;100026.13;5032440;28;20196;-78
2022/05/25 00:57:08;;;;;;;0.97;0.60;;;;;;;13.36;100.00;100030.44;5028291;28;20274;-76
2022/05/25 00:59:43;;;;;;;0.60;0.60;;;;;;;13.36;100.00;100027.84;5029944;28;20238;-76
2022/05/25 01:02:08;;;;;;;1.63;0.80;;;;;;;13.35;100.00;100040.00;5025538;28;20181;-76
2022/05/25 01:04:34;;;;;;;1.40;0.73;;;;;;;13.35;100.00;100040.00;5028893;28;20754;-76
2022/05/25 01:07:24;;;;;;;1.30;1.00;;;;;;;13.33;100.00;100038.31;5028174;28;20272;-76
2022/05/25 01:10:08;;;;;;;2.03;0.80;;;;;;;13.35;100.00;100049.53;5028487;28;20235;-77
2022/05/25 01:13:07;;;;;;;1.17;0.80;;;;;;;13.37;100.00;100046.03;5024799;28;20204;-77
2022/05/25 01:15:54;;;;;;;1.23;0.70;;;;;;;13.37;100.00;100052.94;5021112;28;20193;-77
2022/05/25 01:18:33;;;;;;;1.00;0.90;;;;;;;13.37;100.00;100058.16;5024476;28;20207;-76
2022/05/25 01:21:05;;;;;;;1.03;0.70;;;;;;;13.37;100.00;100053.81;5041442;28;20180;-76
2022/05/25 01:23:37;;;;;;;0.80;0.80;;;;;;;13.38;100.00;100057.25;5032186;28;20199;-76
2022/05/25 01:26:23;;;;;;;0.80;0.70;;;;;;;13.38;100.00;100058.13;5025222;28;20652;-77
2022/05/25 01:29:07;;;;;;;1.47;0.70;;;;;;;13.38;100.00;100063.34;5028340;28;20243;-77
2022/05/25 01:31:53;;;;;;;0.70;0.70;;;;;;;13.39;100.00;100062.41;5026767;28;20929;-76
2022/05/25 01:34:47;;;;;;;2.23;0.70;;;;;;;13.41;100.00;100065.88;5029156;28;20200;-76
2022/05/25 01:37:24;;;;;;;1.73;0.70;;;;;;;13.41;100.00;100065.88;5021500;28;20582;-76
2022/05/25 01:40:08;;;;;;;0.60;0.60;;;;;;;13.41;100.00;100067.63;5022237;28;20225;-76
2022/05/25 01:42:43;;;;;;;0.90;0.77;;;;;;;13.42;100.00;100069.34;5028475;28;20212;-76
2022/05/25 01:45:10;;;;;;;0.97;0.70;;;;;;;13.41;100.00;100067.63;5024605;28;20187;-76
2022/05/25 01:47:42;;;;;;;0.93;0.80;;;;;;;13.41;100.00;100063.25;5021228;28;20209;-75
2022/05/25 01:50:11;;;;;;;0.73;0.73;;;;;;;13.39;100.00;100062.41;5027755;28;20183;-76
2022/05/25 01:52:45;;;;;;;1.07;0.80;;;;;;;13.38;100.00;100065.94;5029019;28;20184;-75
2022/05/25 01:55:28;;;;;;;1.73;0.73;;;;;;;13.35;100.00;100062.53;5028816;28;20185;-76
2022/05/25 01:58:00;;;;;;;0.70;0.70;;;;;;;13.35;100.00;100063.41;5019271;28;20225;-75
2022/05/25 02:00:56;;;;;;;0.80;0.80;;;;;;;13.33;100.00;100059.97;5029143;28;20304;-77
2022/05/25 02:06:25;;;;;;;0.73;0.50;;;;;;;13.31;100.00;100064.34;5027989;28;20230;-76
2022/05/25 02:09:05;;;;;;;0.60;0.60;;;;;;;13.32;100.00;100066.06;5031762;28;20211;-76
2022/05/25 02:11:46;;;;;;;1.00;0.63;;;;;;;13.33;100.00;100067.78;5023241;28;20685;-75
2022/05/25 02:14:31;;;;;;;0.90;0.60;;;;;;;13.32;100.00;100065.19;5024034;28;20194;-78
2022/05/25 02:17:17;;;;;;;1.20;0.50;;;;;;;13.33;100.00;100066.91;5037274;28;20193;-76
2022/05/25 02:19:59;;;;;;;0.70;0.70;;;;;;;13.31;100.00;100074.75;5020678;28;20209;-76
2022/05/25 02:22:42;;;;;;;0.80;0.80;;;;;;;13.31;100.00;100068.72;5032195;28;20749;-76
2022/05/25 02:25:21;;;;;;;1.20;0.70;;;;;;;13.30;100.00;100070.44;5030215;28;20532;-76
2022/05/25 02:28:11;;;;;;;1.20;0.77;;;;;;;13.28;100.00;100072.22;5029274;28;20580;-77
2022/05/25 02:30:42;;;;;;;0.80;0.80;;;;;;;13.27;100.00;100073.09;5059203;28;20660;-78
2022/05/25 02:33:13;;;;;;;0.97;0.80;;;;;;;13.27;100.00;100073.97;5024237;28;20189;-77
2022/05/25 02:35:44;;;;;;;0.93;0.70;;;;;;;13.26;100.00;100081.78;5037203;28;20211;-77
2022/05/25 02:38:10;;;;;;;1.60;0.97;;;;;;;13.24;100.00;100083.56;5031183;28;20218;-78
2022/05/25 02:40:38;;;;;;;1.10;0.90;;;;;;;13.20;100.00;100080.19;5035854;28;20223;-77
2022/05/25 02:43:06;;;;;;;1.13;0.70;;;;;;;13.18;100.00;100076.78;5034275;28;20193;-77
2022/05/25 02:45:31;;;;;;;1.10;0.60;;;;;;;13.16;100.00;100083.75;5030169;28;20419;-77
2022/05/25 02:47:57;;;;;;;0.73;0.60;;;;;;;13.13;100.00;100078.63;5029665;28;20605;-78
2022/05/25 02:50:22;;;;;;;1.13;0.70;;;;;;;13.09;100.00;100074.41;5029594;28;20186;-77
2022/05/25 02:52:48;;;;;;;1.07;0.60;;;;;;;13.03;100.00;100083.19;5028533;28;20242;-76
2022/05/25 02:55:14;;;;;;;0.77;0.70;;;;;;;12.98;100.00;100081.59;5024351;28;20233;-77
2022/05/25 02:57:40;;;;;;;0.90;0.60;;;;;;;12.88;100.00;100083.53;5021783;28;20204;-77
2022/05/25 03:00:07;;;;;;;0.87;0.70;;;;;;;12.80;100.00;100079.34;5026062;28;20311;-77
2022/05/25 03:02:33;;;;;;;0.93;0.70;;;;;;;12.74;100.00;100086.41;5016285;28;20647;-77
2022/05/25 03:04:59;;;;;;;0.80;0.70;;;;;;;12.66;100.00;100086.56;5025002;28;20192;-77
2022/05/25 03:07:25;;;;;;;0.60;0.60;;;;;;;12.59;100.00;100088.44;5028075;28;20211;-77
2022/05/25 03:09:50;;;;;;;1.77;0.83;;;;;;;12.52;100.00;100097.25;5026903;28;20237;-77
2022/05/25 03:12:16;;;;;;;0.70;0.70;;;;;;;12.47;100.00;100093.88;5025316;28;20386;-77
2022/05/25 03:14:42;;;;;;;0.80;0.70;;;;;;;12.41;100.00;100100.06;5025051;28;20644;-77
2022/05/25 03:17:12;;;;;;;0.77;0.77;;;;;;;12.35;100.00;100103.63;5018697;28;20188;-77
2022/05/25 03:19:38;;;;;;;1.07;0.90;;;;;;;12.30;100.00;100108.03;5017021;28;20208;-77
2022/05/25 03:22:06;;;;;;;0.80;0.80;;;;;;;12.25;100.00;100109.84;5027111;28;20269;-77
2022/05/25 03:24:32;;;;;;;0.90;0.57;;;;;;;12.22;100.00;100109.06;5018440;28;20192;-77
2022/05/25 03:26:58;;;;;;;1.10;1.00;;;;;;;12.17;100.00;100109.16;5024420;28;20194;-77
2022/05/25 03:29:24;;;;;;;1.20;1.10;;;;;;;12.14;100.00;100116.97;5024017;28;20189;-77
2022/05/25 03:31:50;;;;;;;1.33;0.90;;;;;;;12.12;100.00;100123.94;5025074;28;20179;-77
2022/05/25 03:34:17;;;;;;;1.10;0.90;;;;;;;12.08;100.00;100123.16;5018561;28;20194;-77
2022/05/25 03:36:43;;;;;;;1.80;1.20;;;;;;;12.03;100.00;100128.41;5020936;28;20199;-77
2022/05/25 03:39:08;;;;;;;1.10;1.00;;;;;;;12.02;100.00;100139.66;5025952;28;20215;-77
2022/05/25 03:41:34;;;;;;;1.27;1.00;;;;;;;11.99;100.00;100141.47;5024436;28;20196;-77
2022/05/25 03:43:59;;;;;;;1.23;1.10;;;;;;;11.97;100.00;100143.19;5022729;28;20187;-77
2022/05/25 03:46:24;;;;;;;1.10;1.00;;;;;;;11.94;100.00;100146.72;5019167;28;20188;-76
2022/05/25 03:48:50;;;;;;;1.17;0.80;;;;;;;11.92;100.00;100152.78;5026994;28;20666;-75
2022/05/25 03:51:15;;;;;;;1.20;1.00;;;;;;;11.90;100.00;100150.22;5025763;28;20281;-77
2022/05/25 03:53:40;;;;;;;1.00;0.90;;;;;;;11.89;100.00;100157.13;5028427;28;20190;-77
2022/05/25 03:56:06;;;;;;;0.80;0.80;;;;;;;11.89;100.00;100159.72;5028862;28;20282;-75
2022/05/25 03:58:32;;;;;;;1.23;0.93;;;;;;;11.90;100.00;100163.19;5029117;28;20211;-76
2022/05/25 04:00:57;;;;;;;1.27;1.17;;;;;;;11.90;100.00;100164.03;5025567;28;20231;-76
2022/05/25 04:03:23;;;;;;;1.10;1.00;;;;;;;11.93;100.00;100170.06;5028887;28;20269;-77
2022/05/25 04:05:48;;;;;;;2.47;1.10;;;;;;;11.93;100.00;100173.53;5028512;28;20215;-75
2022/05/25 04:08:14;;;;;;;1.03;0.93;;;;;;;11.94;100.00;100171.78;5028294;28;20207;-76
2022/05/25 04:10:40;;;;;;;0.90;0.90;;;;;;;11.96;100.00;100176.03;5027954;28;20179;-75
2022/05/25 04:13:05;;;;;;;1.20;1.10;;;;;;;11.98;100.00;100174.31;5026952;28;20191;-76
2022/05/25 04:15:32;;;;;;;1.60;1.40;;;;;;;12.02;100.00;100175.97;5025355;28;20246;-76
2022/05/25 04:17:58;;;;;;;1.60;1.30;;;;;;;12.06;100.00;100186.31;5023005;28;20680;-76
2022/05/25 04:20:25;;;;;;;1.40;1.30;;;;;;;12.10;100.00;100183.63;5023970;28;20217;-76
2022/05/25 04:22:50;;;;;;;1.53;1.40;;;;;;;12.13;100.00;100191.38;5025573;28;20180;-76
2022/05/25 04:25:19;;;;;;;2.50;1.20;;;;;;;12.15;100.00;100191.34;5023462;28;20199;-76
2022/05/25 04:27:49;;;;;;;1.30;1.20;;;;;;;12.17;100.00;100187.84;5019156;28;20604;-75
2022/05/25 04:30:19;;;;;;;1.57;1.33;;;;;;;12.18;100.00;100194.72;5023164;28;20253;-76
2022/05/25 04:32:44;;;;;;;1.17;1.07;;;;;;;12.20;100.00;100192.13;5027064;28;20549;-76
2022/05/25 04:35:12;;;;;;;1.33;1.23;;;;;;;12.23;100.00;100194.66;5027882;28;20187;-75
2022/05/25 04:37:49;;;;;;;2.03;1.20;;;;;;;12.28;100.00;100207.56;5024555;28;20200;-76
2022/05/25 04:40:18;;;;;;;1.20;1.10;;;;;;;12.42;100.00;100205.56;5020429;28;20206;-76
2022/05/25 04:42:45;;;;;;;2.30;1.07;;;;;;;12.65;100.00;100199.97;5023780;28;20211;-75
2022/05/25 04:45:12;;;;;;;2.07;1.80;;;;;;;12.80;100.00;100195.34;5026115;28;20278;-75
2022/05/25 04:47:38;;;;;;;1.60;1.50;;;;;;;12.86;100.00;100209.94;5024375;28;20221;-76
2022/05/25 04:50:08;;;;;;;2.40;1.47;;;;;;;12.91;100.00;100208.13;5026779;28;20203;-76
2022/05/25 04:52:37;;;;;;;2.37;1.33;;;;;;;13.17;100.00;100214.53;5025507;28;20321;-76
2022/05/25 04:55:07;;;;;;;3.33;1.03;;;;;;;13.52;100.00;100203.41;5020004;28;20180;-76
2022/05/25 04:57:33;;;;;;;2.07;1.30;;;;;;;13.71;100.00;100205.59;5029863;28;20291;-76
2022/05/25 05:00:02;;;;;;;2.53;1.30;;;;;;;13.96;100.00;100211.06;5023687;28;20213;-76
2022/05/25 05:02:29;;;;;;;2.70;1.00;;;;;;;14.15;100.00;100216.66;5028524;28;20222;-76
2022/05/25 05:04:54;;;;;;;1.93;1.10;;;;;;;14.53;100.00;100216.56;5026310;28;20195;-76
2022/05/25 05:07:29;;;;;;;0.80;0.80;;;;;;;15.38;99.03;100218.56;5033043;28;20213;-76
2022/05/25 05:09:54;;;;;;;0.90;0.90;;;;;;;15.86;96.86;100217.13;5030379;28;20168;-76
2022/05/25 05:12:20;;;;;;;0.63;0.63;;;;;;;16.66;95.53;100231.88;5029395;28;20199;-76
2022/05/25 05:14:46;;;;;;;0.80;0.80;;;;;;;17.80;91.33;100233.75;5031230;28;20680;-76
2022/05/25 05:17:11;;;;;;;0.93;0.93;;;;;;;18.87;88.04;100240.66;5026531;28;20665;-75
2022/05/25 05:19:37;;;;;;;1.47;0.80;;;;;;;19.47;86.33;100234.50;5030283;28;20789;-77
2022/05/25 05:22:02;;;;;;;1.67;0.73;;;;;;;20.76;82.34;100232.63;5029858;28;20192;-77
2022/05/25 05:24:30;;;;;;;0.80;0.73;;;;;;;22.04;77.82;100230.03;5030459;28;20191;-76
2022/05/25 05:26:56;;;;;;;0.93;0.80;;;;;;;23.08;74.63;100237.91;5028869;28;20208;-76
2022/05/25 05:29:22;;;;;;;1.23;0.70;;;;;;;23.96;72.12;100230.63;5032476;28;20644;-76
2022/05/25 05:31:48;;;;;;;0.70;0.70;;;;;;;24.76;70.30;100227.94;5031432;28;20190;-75
2022/05/25 05:34:13;;;;;;;1.00;0.77;;;;;;;25.41;67.69;100233.09;5023612;28;20194;-75
2022/05/25 05:36:52;;;;;;;1.47;0.73;;;;;;;25.98;66.17;100238.69;5027795;28;20215;-75
2022/05/25 05:39:19;;;;;;;1.30;1.00;;;;;;;26.48;63.76;100233.19;5034826;28;20226;-75
2022/05/25 05:42:05;;;;;;;1.20;1.10;;;;;;;26.88;62.42;100237.22;5025851;28;20196;-75
2022/05/25 05:44:40;;;;;;;0.97;0.87;;;;;;;27.26;61.43;100243.97;5023589;28;20203;-74
2022/05/25 05:47:11;;;;;;;1.80;0.90;;;;;;;27.58;61.34;100243.22;5032390;28;20547;-76
2022/05/25 05:49:37;;;;;;;1.27;0.73;;;;;;;27.97;60.11;100238.22;5027156;28;20196;-76
2022/05/25 05:52:03;;;;;;;1.17;0.70;;;;;;;28.22;58.29;100238.84;5030614;28;20203;-75
2022/05/25 05:54:29;;;;;;;1.00;0.80;;;;;;;28.42;57.78;100231.84;5027749;28;20191;-76
2022/05/25 05:56:55;;;;;;;1.87;0.80;;;;;;;28.66;56.54;100235.19;5032087;28;20184;-76
2022/05/25 05:59:20;;;;;;;1.57;0.93;;;;;;;28.69;56.58;100240.22;5027353;28;20238;-76
2022/05/25 06:01:45;;;;;;;1.07;0.70;;;;;;;28.88;56.04;100243.00;5030603;28;20253;-75
2022/05/25 06:04:11;;;;;;;1.80;0.97;;;;;;;28.97;56.67;100243.19;5031399;28;20278;-75
2022/05/25 06:06:37;;;;;;;4.20;1.03;;;;;;;29.26;56.49;100248.59;5036208;28;20279;-75
2022/05/25 06:09:03;;;;;;;2.63;1.17;;;;;;;29.43;55.22;100252.44;5027284;28;20203;-76
2022/05/25 06:11:28;;;;;;;1.03;0.80;;;;;;;29.52;55.60;100258.78;5030017;28;20237;-76
2022/05/25 06:13:54;;;;;;;1.90;0.80;;;;;;;29.83;55.17;100258.66;5031060;28;20191;-76
2022/05/25 06:21:48;;;;;;;2.77;1.57;;;;;;;30.53;55.46;100273.66;5029256;28;20198;-78
2022/05/25 06:24:13;;;;;;;2.33;0.93;;;;;;;30.80;55.33;100267.56;5030732;28;20183;-76
2022/05/25 06:26:39;;;;;;;1.60;1.00;;;;;;;31.09;53.65;100269.28;5033069;28;20202;-77
2022/05/25 06:29:04;;;;;;;1.73;0.90;;;;;;;30.89;54.06;100273.88;5030504;28;20865;-75
2022/05/25 06:31:31;;;;;;;1.67;0.90;;;;;;;30.94;53.98;100281.44;5032216;28;20187;-76
2022/05/25 06:33:58;;;;;;;4.93;1.10;;;;;;;31.07;54.53;100273.91;5024531;28;20797;-76
2022/05/25 06:36:26;;;;;;;2.60;1.10;;;;;;;31.19;54.30;100279.94;5023008;28;20188;-74
2022/05/25 06:38:54;;;;;;;2.23;0.97;;;;;;;31.22;54.34;100278.81;5028905;28;20192;-76
2022/05/25 06:41:19;;;;;;;1.57;0.80;;;;;;;31.34;54.73;100276.78;5029614;28;20183;-76
2022/05/25 06:43:45;;;;;;;1.13;0.80;;;;;;;31.39;54.36;100280.69;5030065;28;20184;-76
2022/05/25 06:46:12;;;;;;;0.90;0.70;;;;;;;31.47;54.38;100285.28;5028388;28;20177;-76
2022/05/25 06:48:39;;;;;;;1.20;1.00;;;;;;;31.53;53.58;100294.53;5023167;28;20215;-78
2022/05/25 06:51:17;;;;;;;0.77;0.70;;;;;;;31.49;53.66;100294.00;5022313;28;20199;-75
2022/05/25 06:53:43;;;;;;;1.63;1.05;;;;;;;31.52;53.16;100303.53;5028991;28;20195;-75
2022/05/25 06:56:08;;;;;;;0.70;0.70;;;;;;;31.56;52.99;100305.75;5027806;28;20527;-76
2022/05/25 06:58:34;;;;;;;1.70;1.00;;;;;;;31.58;53.20;100310.97;5026065;28;20216;-76
2022/05/25 07:01:00;;;;;;;2.00;0.90;;;;;;;31.54;53.24;100313.09;5029689;28;20207;-76
2022/05/25 07:03:26;;;;;;;1.75;0.90;;;;;;;31.47;53.04;100312.03;5028752;28;20608;-76
2022/05/25 07:05:52;;;;;;;2.10;0.83;;;;;;;31.41;53.11;100320.63;5023849;28;20195;-75
2022/05/25 07:08:17;;;;;;;1.03;0.90;;;;;;;31.37;53.22;100324.63;5028635;28;20207;-75
2022/05/25 07:10:45;;;;;;;1.23;0.80;;;;;;;31.21;53.30;100319.88;5028299;28;20171;-77
2022/05/25 07:13:17;;;;;;;1.93;0.90;;;;;;;31.14;53.33;100323.16;5025739;28;20179;-76
2022/05/25 07:15:43;;;;;;;1.83;0.80;;;;;;;31.03;53.52;100331.31;5026625;28;20184;-75
2022/05/25 07:18:10;;;;;;;1.27;0.90;;;;;;;30.94;53.40;100330.38;5022062;28;20207;-77
2022/05/25 07:20:36;;;;;;;2.10;0.90;;;;;;;30.89;54.06;100323.78;5029108;28;20203;-77
2022/05/25 07:23:01;;;;;;;1.20;0.87;;;;;;;30.81;54.07;100321.81;5026066;28;20233;-76
2022/05/25 07:25:27;;;;;;;2.30;0.90;;;;;;;30.62;53.05;100325.41;5025279;28;20238;-76
2022/05/25 07:27:52;;;;;;;1.97;0.83;;;;;;;30.36;54.05;100333.97;5026978;28;20608;-75
2022/05/25 07:30:18;;;;;;;1.53;1.03;;;;;;;30.20;53.89;100332.72;5026288;28;20188;-76
2022/05/25 07:32:46;;;;;;;1.00;0.90;;;;;;;30.11;53.87;100337.06;5024505;28;20214;-76
2022/05/25 07:35:14;;;;;;;1.33;0.90;;;;;;;29.93;54.40;100333.38;5025530;28;20211;-75
2022/05/25 07:37:41;;;;;;;1.37;0.90;;;;;;;29.78;54.47;100339.13;5029572;28;20199;-75
2022/05/25 07:40:12;;;;;;;1.07;0.80;;;;;;;29.61;54.03;100334.44;5023933;28;20294;-76
2022/05/25 07:42:43;;;;;;;2.00;0.97;;;;;;;29.28;54.52;100329.28;5023260;28;20195;-75
2022/05/25 07:45:09;;;;;;;0.90;0.87;;;;;;;29.08;54.91;100328.34;5028857;28;20175;-77
2022/05/25 07:47:35;;;;;;;1.30;0.90;;;;;;;28.95;55.47;100336.56;5027562;28;20615;-76
2022/05/25 07:50:01;;;;;;;0.70;0.70;;;;;;;28.77;55.39;100328.34;5025368;28;20929;-76
2022/05/25 07:52:30;;;;;;;2.07;0.87;;;;;;;28.53;56.07;100329.41;5019569;28;20179;-75
2022/05/25 07:54:57;;;;;;;1.07;0.90;;;;;;;28.27;56.04;100331.59;5017954;28;20230;-75
2022/05/25 07:57:23;;;;;;;1.17;0.90;;;;;;;28.05;55.98;100335.16;5032285;28;20207;-75
2022/05/25 07:59:48;;;;;;;1.40;0.87;;;;;;;27.83;56.61;100343.06;5028368;28;20210;-77
2022/05/25 08:08:02;;;;;;;1.80;1.10;;;;;;;26.96;57.93;100340.19;5024290;28;20649;-76
2022/05/25 08:10:28;;;;;;;2.00;1.10;;;;;;;26.80;58.58;100346.69;5028564;28;20203;-76
2022/05/25 08:12:57;;;;;;;1.47;0.97;;;;;;;26.63;58.51;100347.94;5027728;28;20245;-76
2022/05/25 08:15:24;;;;;;;3.60;1.03;;;;;;;26.41;58.67;100338.94;5027418;28;20191;-76
2022/05/25 08:17:49;;;;;;;1.40;1.10;;;;;;;26.15;59.43;100333.78;5027139;28;20770;-76
2022/05/25 08:20:15;;;;;;;1.70;0.90;;;;;;;25.94;60.25;100340.66;5028509;28;20286;-76
2022/05/25 08:22:41;;;;;;;1.10;1.00;;;;;;;25.75;60.89;100328.72;5022212;28;20183;-76
2022/05/25 08:25:08;;;;;;;1.63;1.00;;;;;;;25.58;61.32;100327.28;5023749;28;20258;-76
2022/05/25 08:27:36;;;;;;;1.23;1.03;;;;;;;25.45;61.71;100327.31;5024759;28;20214;-76
2022/05/25 08:30:01;;;;;;;2.10;1.43;;;;;;;25.34;60.72;100322.75;5026304;28;20599;-77
2022/05/25 08:32:27;;;;;;;2.80;1.20;;;;;;;25.20;60.80;100322.88;5025982;28;20180;-76
2022/05/25 08:34:52;;;;;;;1.30;0.87;;;;;;;25.06;60.43;100332.63;5026334;28;20214;-77
2022/05/25 08:37:17;;;;;;;1.53;0.97;;;;;;;24.89;60.44;100339.06;5027660;28;20257;-76
2022/05/25 08:39:43;;;;;;;1.10;0.77;;;;;;;24.48;60.92;100340.03;5026988;28;20655;-76
2022/05/25 08:42:19;;;;;;;1.97;0.80;;;;;;;24.17;61.48;100331.50;5022630;28;20195;-76
2022/05/25 08:44:48;;;;;;;1.57;1.00;;;;;;;24.02;61.77;100334.19;5028032;28;20716;-77
2022/05/25 08:47:14;;;;;;;1.23;0.87;;;;;;;24.00;61.70;100341.38;5030803;28;20196;-76
2022/05/25 08:49:44;;;;;;;1.03;0.70;;;;;;;24.09;62.08;100339.09;5032130;28;20259;-76
2022/05/25 08:52:31;;;;;;;3.40;1.07;;;;;;;24.22;61.42;100345.28;5032159;28;20187;-76
2022/05/25 08:55:00;;;;;;;1.47;0.80;;;;;;;24.17;60.69;100350.00;5028653;28;20253;-76
2022/05/25 08:57:38;;;;;;;2.00;1.00;;;;;;;24.12;61.05;100339.75;5029841;28;20575;-76
2022/05/25 09:00:10;;;;;;;1.60;0.87;;;;;;;24.13;61.21;100340.56;5030819;28;20207;-76
2022/05/25 09:03:03;;;;;;;2.37;0.70;;;;;;;24.20;61.15;100341.88;5029922;28;20182;-76
2022/05/25 09:05:28;;;;;;;1.97;1.00;;;;;;;24.26;61.34;100340.63;5057579;28;20188;-76
2022/05/25 09:08:03;;;;;;;2.00;1.00;;;;;;;24.27;61.98;100340.53;5029200;28;20322;-76
2022/05/25 09:10:33;;;;;;;1.10;0.70;;;;;;;24.19;61.14;100337.53;5028956;28;20187;-76
2022/05/25 09:13:12;;;;;;;0.80;0.80;;;;;;;24.05;60.69;100334.00;5028353;28;20206;-76
2022/05/25 09:16:15;;;;;;;1.63;0.80;;;;;;;23.90;60.75;100329.69;5027015;28;20179;-75
2022/05/25 09:18:33;;;;;;;0.90;0.77;;;;;;;23.85;61.99;100334.41;5027939;28;20207;-75
2022/05/25 09:21:02;;;;;;;1.47;0.67;;;;;;;23.84;60.98;100330.06;5030172;28;20203;-76
2022/05/25 09:23:28;;;;;;;2.47;0.70;;;;;;;23.74;60.67;100343.88;5030130;28;20183;-75
2022/05/25 09:25:54;;;;;;;1.73;0.70;;;;;;;23.71;61.11;100338.78;5029379;28;20199;-77
2022/05/25 09:28:33;;;;;;;1.20;0.77;;;;;;;23.72;60.85;100352.84;5028425;28;20748;-76
2022/05/25 09:31:02;;;;;;;2.03;0.73;;;;;;;23.73;60.69;100347.44;5031874;28;20195;-76
2022/05/25 09:33:39;;;;;;;2.87;0.93;;;;;;;23.70;60.11;100354.72;5029847;28;20187;-76
2022/05/25 09:36:12;;;;;;;2.17;0.80;;;;;;;23.70;60.05;100347.66;5030974;28;20225;-76
2022/05/25 09:38:45;;;;;;;1.63;1.13;;;;;;;23.81;60.12;100351.41;5031277;28;20357;-75
2022/05/25 09:41:24;;;;;;;2.40;0.90;;;;;;;23.88;60.21;100347.41;5029779;28;20311;-76
2022/05/25 09:43:56;;;;;;;2.13;0.93;;;;;;;23.94;60.43;100354.09;5029920;28;20636;-76
2022/05/25 09:46:29;;;;;;;1.70;0.83;;;;;;;23.98;60.18;100353.84;5030375;28;20200;-76
2022/05/25 09:49:06;;;;;;;1.77;0.93;;;;;;;24.01;59.52;100352.81;5029425;28;20207;-75
2022/05/25 09:51:49;;;;;;;2.33;1.00;;;;;;;24.02;59.96;100359.78;5030202;28;20187;-76
2022/05/25 09:54:20;;;;;;;1.73;0.90;;;;;;;24.10;60.45;100354.84;5014970;28;20180;-75
2022/05/25 09:56:53;;;;;;;1.73;1.10;;;;;;;23.95;60.68;100366.38;5027349;28;20891;-75
2022/05/25 09:59:48;;;;;;;2.07;1.00;;;;;;;23.55;61.21;100367.09;5029952;28;20687;-75
2022/05/25 10:02:27;;;;;;;2.13;1.00;;;;;;;23.35;61.68;100366.56;5029270;28;20180;-75
2022/05/25 10:04:53;;;;;;;1.37;0.93;;;;;;;23.25;62.31;100358.34;5027876;28;20249;-76
2022/05/25 10:07:21;;;;;;;2.00;1.10;;;;;;;23.34;62.03;100366.63;5029690;28;20690;-75
2022/05/25 10:09:51;;;;;;;2.10;1.27;;;;;;;23.35;61.46;100363.91;5029147;28;20628;-76
2022/05/25 10:12:24;;;;;;;1.70;1.10;;;;;;;23.28;61.53;100362.59;5029751;28;20593;-76
2022/05/25 10:14:56;;;;;;;2.60;0.97;;;;;;;23.25;61.28;100358.34;5028133;28;20209;-75
2022/05/25 10:17:32;;;;;;;2.10;1.00;;;;;;;23.38;60.94;100360.22;5028283;28;20219;-76
2022/05/25 10:19:58;;;;;;;0.80;0.60;;;;;;;23.34;60.63;100354.31;5026993;28;20242;-76
2022/05/25 10:22:31;;;;;;;1.00;0.70;;;;;;;23.30;60.76;100365.97;5029756;28;20239;-77
2022/05/25 10:25:12;;;;;;;1.00;0.90;;;;;;;23.39;60.87;100354.00;5029011;28;20195;-76
2022/05/25 10:27:40;;;;;;;1.10;0.60;;;;;;;23.63;61.00;100353.41;5029991;28;20207;-77
2022/05/25 10:38:51;;;;;;;1.50;0.90;;;;;;;24.03;59.52;100337.69;5029950;28;20725;-75
2022/05/25 10:41:39;;;;;;;1.87;0.93;;;;;;;23.89;59.77;100343.84;5027147;28;20238;-76
2022/05/25 10:44:20;;;;;;;1.40;0.67;;;;;;;23.79;60.09;100340.94;5020711;28;20179;-76
2022/05/25 10:46:53;;;;;;;1.00;0.70;;;;;;;23.95;60.05;100342.59;5026309;28;20238;-75
2022/05/25 10:49:41;;;;;;;1.87;0.70;;;;;;;24.11;60.34;100331.91;5025388;28;20202;-75
2022/05/25 10:52:16;;;;;;;0.70;0.70;;;;;;;24.00;60.22;100329.97;5029032;28;20175;-75
2022/05/25 10:54:45;;;;;;;0.83;0.80;;;;;;;23.82;60.28;100331.97;5030056;28;20172;-76
2022/05/25 10:57:29;;;;;;;1.23;0.80;;;;;;;23.90;59.25;100332.31;5028072;28;20218;-76
2022/05/25 10:59:54;;;;;;;1.97;0.80;;;;;;;23.92;58.42;100335.72;5028170;28;20231;-75
2022/05/25 11:02:41;;;;;;;1.30;0.53;;;;;;;23.86;59.03;100341.38;5026423;28;20222;-76
2022/05/25 11:05:13;;;;;;;1.63;0.80;;;;;;;23.95;59.29;100338.16;5020627;28;20209;-77
2022/05/25 11:07:41;;;;;;;0.93;0.63;;;;;;;24.05;58.75;100339.28;5058776;28;20203;-75
2022/05/25 11:10:35;;;;;;;1.30;0.70;;;;;;;23.88;58.17;100339.50;5028811;28;20289;-75
2022/05/25 11:13:24;;;;;;;1.03;0.53;;;;;;;23.67;58.32;100347.00;5024265;28;20193;-76
2022/05/25 11:16:20;;;;;;;1.13;0.80;;;;;;;23.62;57.86;100347.28;5029459;28;20285;-76
2022/05/25 11:18:57;;;;;;;16.97;2.43;;;;;;;23.88;56.55;100328.91;5024428;28;20196;-76
2022/05/25 11:22:03;;;;;;;1.27;0.67;;;;;;;24.05;56.08;100334.00;5028600;28;20187;-76
2022/05/25 11:25:07;;;;;;;1.57;0.80;;;;;;;24.19;55.64;100341.03;5019953;28;20227;-76
2022/05/25 11:27:34;;;;;;;1.07;0.60;;;;;;;24.18;55.91;100327.91;5026768;28;20211;-75
2022/05/25 11:30:21;;;;;;;1.10;0.60;;;;;;;24.26;56.06;100340.63;5021247;28;20176;-75
2022/05/25 11:33:06;;;;;;;0.80;0.50;;;;;;;24.30;56.41;100334.19;5029782;28;20266;-76
2022/05/25 11:35:56;;;;;;;0.63;0.50;;;;;;;24.05;56.81;100336.66;5027955;28;20183;-75
2022/05/25 11:38:34;;;;;;;2.40;0.60;;;;;;;24.00;56.75;100330.81;5020696;28;20215;-76
2022/05/25 11:41:08;;;;;;;1.07;0.50;;;;;;;24.03;56.93;100341.19;5017043;28;20750;-76
2022/05/25 11:44:12;;;;;;;1.10;0.50;;;;;;;24.12;57.17;100328.31;5030831;28;20183;-76
2022/05/25 11:46:41;;;;;;;0.67;0.60;;;;;;;24.16;57.09;100333.31;5005987;28;20201;-75
2022/05/25 11:49:46;;;;;;;1.57;0.80;;;;;;;24.20;56.56;100337.44;5028793;28;20207;-75
2022/05/25 11:52:48;;;;;;;0.57;0.53;;;;;;;24.25;56.50;100344.22;5027814;28;20187;-75
2022/05/25 11:55:26;;;;;;;0.67;0.57;;;;;;;24.19;55.74;100332.25;5022545;28;20186;-76
2022/05/25 11:58:10;;;;;;;0.70;0.50;;;;;;;24.25;56.90;100329.22;5021478;28;20219;-75
2022/05/25 12:00:48;;;;;;;1.07;0.70;;;;;;;24.22;55.77;100336.47;5028768;28;20222;-74
2022/05/25 12:03:39;;;;;;;1.70;0.70;;;;;;;24.04;56.43;100326.19;5022032;28;20644;-78
2022/05/25 12:06:19;;;;;;;1.03;0.70;;;;;;;23.98;55.96;100319.47;5023697;28;20187;-76